sensor_id;sensor_type;location;lat;lon;timestamp;P1;durP1;ratioP1;P2;durP2;ratioP2
59416;SDS011;45222;52.458;20.914;2023-08-01T00:01:30;8.00;;;3.60;;
59416;SDS011;45222;52.458;20.914;2023-08-01T00:05:16;7.50;;;3.70;;
59416;SDS011;45222;52.458;20.914;2023-08-01T00:09:01;7.30;;;3.50;;
59416;SDS011;45222;52.458;20.914;2023-08-01T00:12:46;6.90;;;3.60;;
59416;SDS011;45222;52.458;20.914;2023-08-01T00:16:31;7.20;;;3.60;;
59416;SDS011;45222;52.458;20.914;2023-08-01T00:20:18;10.80;;;4.00;;
59416;SDS011;45222;52.458;20.914;2023-08-01T00:24:03;6.90;;;3.60;;
59416;SDS011;45222;52.458;20.914;2023-08-01T00:27:49;7.90;;;3.70;;
59416;SDS011;45222;52.458;20.914;2023-08-01T00:31:35;6.60;;;3.60;;
59416;SDS011;45222;52.458;20.914;2023-08-01T00:35:20;6.30;;;3.90;;
59416;SDS011;45222;52.458;20.914;2023-08-01T00:39:05;7.70;;;3.80;;
59416;SDS011;45222;52.458;20.914;2023-08-01T00:42:50;6.20;;;3.40;;
59416;SDS011;45222;52.458;20.914;2023-08-01T00:46:40;8.20;;;3.70;;
59416;SDS011;45222;52.458;20.914;2023-08-01T00:50:25;7.70;;;3.60;;
59416;SDS011;45222;52.458;20.914;2023-08-01T00:54:10;9.50;;;4.30;;
59416;SDS011;45222;52.458;20.914;2023-08-01T00:57:56;8.20;;;4.20;;
59416;SDS011;45222;52.458;20.914;2023-08-01T01:01:41;9.30;;;4.70;;
59416;SDS011;45222;52.458;20.914;2023-08-01T01:05:26;8.50;;;4.30;;
59416;SDS011;45222;52.458;20.914;2023-08-01T01:09:15;7.80;;;4.10;;
59416;SDS011;45222;52.458;20.914;2023-08-01T01:13:01;9.40;;;3.80;;
59416;SDS011;45222;52.458;20.914;2023-08-01T01:16:46;7.00;;;3.70;;
59416;SDS011;45222;52.458;20.914;2023-08-01T01:20:33;6.90;;;3.80;;
59416;SDS011;45222;52.458;20.914;2023-08-01T01:24:19;8.30;;;3.70;;
59416;SDS011;45222;52.458;20.914;2023-08-01T01:28:05;9.40;;;3.90;;
59416;SDS011;45222;52.458;20.914;2023-08-01T01:31:52;8.60;;;3.90;;
59416;SDS011;45222;52.458;20.914;2023-08-01T01:35:38;6.90;;;3.90;;
59416;SDS011;45222;52.458;20.914;2023-08-01T01:39:24;8.10;;;4.00;;
59416;SDS011;45222;52.458;20.914;2023-08-01T01:43:09;7.10;;;3.50;;
59416;SDS011;45222;52.458;20.914;2023-08-01T01:46:54;7.20;;;3.80;;
59416;SDS011;45222;52.458;20.914;2023-08-01T01:50:39;6.20;;;3.50;;
59416;SDS011;45222;52.458;20.914;2023-08-01T01:54:25;6.80;;;3.60;;
59416;SDS011;45222;52.458;20.914;2023-08-01T01:58:12;7.30;;;3.90;;
59416;SDS011;45222;52.458;20.914;2023-08-01T02:01:57;6.80;;;3.60;;
59416;SDS011;45222;52.458;20.914;2023-08-01T02:05:44;7.60;;;3.70;;
59416;SDS011;45222;52.458;20.914;2023-08-01T02:09:29;8.20;;;3.70;;
59416;SDS011;45222;52.458;20.914;2023-08-01T02:13:14;8.20;;;3.70;;
59416;SDS011;45222;52.458;20.914;2023-08-01T02:17:00;7.20;;;3.70;;
59416;SDS011;45222;52.458;20.914;2023-08-01T02:20:45;7.50;;;3.60;;
59416;SDS011;45222;52.458;20.914;2023-08-01T02:24:31;6.90;;;3.70;;
59416;SDS011;45222;52.458;20.914;2023-08-01T02:28:16;7.30;;;3.80;;
59416;SDS011;45222;52.458;20.914;2023-08-01T02:32:01;8.60;;;3.80;;
59416;SDS011;45222;52.458;20.914;2023-08-01T02:35:46;7.70;;;3.30;;
59416;SDS011;45222;52.458;20.914;2023-08-01T02:39:32;10.10;;;3.60;;
59416;SDS011;45222;52.458;20.914;2023-08-01T02:43:17;7.00;;;3.30;;
59416;SDS011;45222;52.458;20.914;2023-08-01T02:47:03;10.20;;;4.00;;
59416;SDS011;45222;52.458;20.914;2023-08-01T02:50:49;7.50;;;3.90;;
59416;SDS011;45222;52.458;20.914;2023-08-01T02:54:34;7.70;;;3.80;;
59416;SDS011;45222;52.458;20.914;2023-08-01T02:58:19;8.60;;;3.80;;
59416;SDS011;45222;52.458;20.914;2023-08-01T03:02:04;7.60;;;3.90;;
59416;SDS011;45222;52.458;20.914;2023-08-01T03:05:50;7.80;;;3.80;;
59416;SDS011;45222;52.458;20.914;2023-08-01T03:09:36;7.50;;;3.90;;
59416;SDS011;45222;52.458;20.914;2023-08-01T03:13:21;8.80;;;4.30;;
59416;SDS011;45222;52.458;20.914;2023-08-01T03:17:06;7.90;;;4.10;;
59416;SDS011;45222;52.458;20.914;2023-08-01T03:20:51;7.60;;;3.80;;
59416;SDS011;45222;52.458;20.914;2023-08-01T03:24:36;9.10;;;4.20;;
59416;SDS011;45222;52.458;20.914;2023-08-01T03:28:22;8.20;;;4.00;;
59416;SDS011;45222;52.458;20.914;2023-08-01T03:32:08;8.80;;;4.00;;
59416;SDS011;45222;52.458;20.914;2023-08-01T03:35:53;7.80;;;4.10;;
59416;SDS011;45222;52.458;20.914;2023-08-01T03:39:38;8.00;;;4.30;;
59416;SDS011;45222;52.458;20.914;2023-08-01T03:43:23;8.10;;;4.10;;
59416;SDS011;45222;52.458;20.914;2023-08-01T03:47:09;7.90;;;3.70;;
59416;SDS011;45222;52.458;20.914;2023-08-01T03:50:54;7.40;;;4.00;;
59416;SDS011;45222;52.458;20.914;2023-08-01T03:54:39;9.40;;;3.80;;
59416;SDS011;45222;52.458;20.914;2023-08-01T03:58:24;11.80;;;4.20;;
59416;SDS011;45222;52.458;20.914;2023-08-01T04:02:09;8.20;;;4.50;;
59416;SDS011;45222;52.458;20.914;2023-08-01T04:05:54;9.20;;;3.80;;
59416;SDS011;45222;52.458;20.914;2023-08-01T04:09:40;8.60;;;4.00;;
59416;SDS011;45222;52.458;20.914;2023-08-01T04:13:25;7.90;;;4.20;;
59416;SDS011;45222;52.458;20.914;2023-08-01T04:17:10;10.30;;;3.90;;
59416;SDS011;45222;52.458;20.914;2023-08-01T04:20:55;8.10;;;4.10;;
59416;SDS011;45222;52.458;20.914;2023-08-01T04:24:40;8.40;;;4.10;;
59416;SDS011;45222;52.458;20.914;2023-08-01T04:28:26;8.20;;;3.60;;
59416;SDS011;45222;52.458;20.914;2023-08-01T04:32:11;9.10;;;3.90;;
59416;SDS011;45222;52.458;20.914;2023-08-01T04:35:57;6.90;;;3.90;;
59416;SDS011;45222;52.458;20.914;2023-08-01T04:39:42;7.10;;;3.80;;
59416;SDS011;45222;52.458;20.914;2023-08-01T04:43:27;8.00;;;3.90;;
59416;SDS011;45222;52.458;20.914;2023-08-01T04:47:13;11.40;;;4.40;;
59416;SDS011;45222;52.458;20.914;2023-08-01T04:50:58;8.50;;;3.80;;
59416;SDS011;45222;52.458;20.914;2023-08-01T04:54:43;9.90;;;3.60;;
59416;SDS011;45222;52.458;20.914;2023-08-01T04:58:28;8.50;;;3.60;;
59416;SDS011;45222;52.458;20.914;2023-08-01T05:02:14;6.00;;;3.40;;
59416;SDS011;45222;52.458;20.914;2023-08-01T05:05:59;15.00;;;3.80;;
59416;SDS011;45222;52.458;20.914;2023-08-01T05:09:44;8.90;;;3.90;;
59416;SDS011;45222;52.458;20.914;2023-08-01T05:13:29;6.80;;;3.00;;
59416;SDS011;45222;52.458;20.914;2023-08-01T05:17:15;9.30;;;3.30;;
59416;SDS011;45222;52.458;20.914;2023-08-01T05:21:00;6.50;;;3.10;;
59416;SDS011;45222;52.458;20.914;2023-08-01T05:24:46;6.40;;;3.20;;
59416;SDS011;45222;52.458;20.914;2023-08-01T05:28:31;6.90;;;3.30;;
59416;SDS011;45222;52.458;20.914;2023-08-01T05:32:16;8.10;;;3.30;;
59416;SDS011;45222;52.458;20.914;2023-08-01T05:36:01;7.00;;;2.80;;
59416;SDS011;45222;52.458;20.914;2023-08-01T05:39:46;8.90;;;2.80;;
59416;SDS011;45222;52.458;20.914;2023-08-01T05:43:32;9.50;;;3.10;;
59416;SDS011;45222;52.458;20.914;2023-08-01T05:47:17;11.10;;;3.30;;
59416;SDS011;45222;52.458;20.914;2023-08-01T05:51:02;11.30;;;2.80;;
59416;SDS011;45222;52.458;20.914;2023-08-01T05:54:47;15.90;;;3.00;;
59416;SDS011;45222;52.458;20.914;2023-08-01T05:58:33;5.70;;;2.90;;
59416;SDS011;45222;52.458;20.914;2023-08-01T06:02:18;8.30;;;2.70;;
59416;SDS011;45222;52.458;20.914;2023-08-01T06:06:04;6.40;;;2.90;;
59416;SDS011;45222;52.458;20.914;2023-08-01T06:09:49;7.00;;;3.10;;
59416;SDS011;45222;52.458;20.914;2023-08-01T06:13:35;6.90;;;2.70;;
59416;SDS011;45222;52.458;20.914;2023-08-01T06:17:20;7.90;;;3.00;;
59416;SDS011;45222;52.458;20.914;2023-08-01T06:21:05;6.60;;;2.90;;
59416;SDS011;45222;52.458;20.914;2023-08-01T06:24:51;13.50;;;2.90;;
59416;SDS011;45222;52.458;20.914;2023-08-01T06:28:36;6.90;;;3.00;;
59416;SDS011;45222;52.458;20.914;2023-08-01T06:32:21;10.90;;;3.10;;
59416;SDS011;45222;52.458;20.914;2023-08-01T06:36:06;7.20;;;2.70;;
59416;SDS011;45222;52.458;20.914;2023-08-01T06:39:51;12.00;;;3.30;;
59416;SDS011;45222;52.458;20.914;2023-08-01T06:43:38;7.00;;;2.70;;
59416;SDS011;45222;52.458;20.914;2023-08-01T06:47:23;7.50;;;2.80;;
59416;SDS011;45222;52.458;20.914;2023-08-01T06:51:08;8.50;;;3.00;;
59416;SDS011;45222;52.458;20.914;2023-08-01T06:54:54;6.90;;;3.20;;
59416;SDS011;45222;52.458;20.914;2023-08-01T06:58:39;7.30;;;2.70;;
59416;SDS011;45222;52.458;20.914;2023-08-01T07:02:24;6.80;;;2.70;;
59416;SDS011;45222;52.458;20.914;2023-08-01T07:06:09;6.50;;;2.80;;
59416;SDS011;45222;52.458;20.914;2023-08-01T07:09:54;6.70;;;2.80;;
59416;SDS011;45222;52.458;20.914;2023-08-01T07:13:40;15.40;;;3.50;;
59416;SDS011;45222;52.458;20.914;2023-08-01T07:17:25;6.60;;;2.60;;
59416;SDS011;45222;52.458;20.914;2023-08-01T07:21:10;7.70;;;2.70;;
59416;SDS011;45222;52.458;20.914;2023-08-01T07:24:56;9.80;;;3.00;;
59416;SDS011;45222;52.458;20.914;2023-08-01T07:28:41;9.00;;;3.10;;
59416;SDS011;45222;52.458;20.914;2023-08-01T07:32:29;7.00;;;3.00;;
59416;SDS011;45222;52.458;20.914;2023-08-01T07:36:15;9.00;;;3.00;;
59416;SDS011;45222;52.458;20.914;2023-08-01T07:40:00;9.90;;;2.50;;
59416;SDS011;45222;52.458;20.914;2023-08-01T07:43:46;6.10;;;2.50;;
59416;SDS011;45222;52.458;20.914;2023-08-01T07:47:32;6.10;;;2.70;;
59416;SDS011;45222;52.458;20.914;2023-08-01T07:51:17;7.20;;;2.70;;
59416;SDS011;45222;52.458;20.914;2023-08-01T07:55:04;8.80;;;3.00;;
59416;SDS011;45222;52.458;20.914;2023-08-01T07:58:50;7.70;;;2.80;;
59416;SDS011;45222;52.458;20.914;2023-08-01T08:02:36;5.70;;;2.70;;
59416;SDS011;45222;52.458;20.914;2023-08-01T08:06:21;9.00;;;2.80;;
59416;SDS011;45222;52.458;20.914;2023-08-01T08:10:08;9.80;;;2.80;;
59416;SDS011;45222;52.458;20.914;2023-08-01T08:13:53;7.00;;;2.50;;
59416;SDS011;45222;52.458;20.914;2023-08-01T08:17:38;16.60;;;3.20;;
59416;SDS011;45222;52.458;20.914;2023-08-01T08:21:23;6.80;;;2.80;;
59416;SDS011;45222;52.458;20.914;2023-08-01T08:25:08;9.40;;;2.80;;
59416;SDS011;45222;52.458;20.914;2023-08-01T08:28:53;5.70;;;2.40;;
59416;SDS011;45222;52.458;20.914;2023-08-01T08:32:39;6.60;;;3.10;;
59416;SDS011;45222;52.458;20.914;2023-08-01T08:36:24;6.00;;;2.50;;
59416;SDS011;45222;52.458;20.914;2023-08-01T08:40:11;6.30;;;2.70;;
59416;SDS011;45222;52.458;20.914;2023-08-01T08:43:57;8.50;;;2.60;;
59416;SDS011;45222;52.458;20.914;2023-08-01T08:47:43;8.30;;;2.60;;
59416;SDS011;45222;52.458;20.914;2023-08-01T08:51:33;5.90;;;2.70;;
59416;SDS011;45222;52.458;20.914;2023-08-01T08:55:20;4.60;;;2.50;;
59416;SDS011;45222;52.458;20.914;2023-08-01T08:59:07;4.80;;;2.50;;
59416;SDS011;45222;52.458;20.914;2023-08-01T09:02:53;8.00;;;2.80;;
59416;SDS011;45222;52.458;20.914;2023-08-01T09:06:40;7.50;;;2.80;;
59416;SDS011;45222;52.458;20.914;2023-08-01T09:10:28;6.50;;;2.60;;
59416;SDS011;45222;52.458;20.914;2023-08-01T09:14:14;6.50;;;2.80;;
59416;SDS011;45222;52.458;20.914;2023-08-01T09:18:00;6.50;;;3.10;;
59416;SDS011;45222;52.458;20.914;2023-08-01T09:21:51;9.20;;;2.90;;
59416;SDS011;45222;52.458;20.914;2023-08-01T09:25:36;7.30;;;2.80;;
59416;SDS011;45222;52.458;20.914;2023-08-01T09:29:21;8.00;;;3.10;;
59416;SDS011;45222;52.458;20.914;2023-08-01T09:33:08;7.20;;;2.90;;
59416;SDS011;45222;52.458;20.914;2023-08-01T09:36:58;6.60;;;2.80;;
59416;SDS011;45222;52.458;20.914;2023-08-01T09:40:44;5.50;;;2.70;;
59416;SDS011;45222;52.458;20.914;2023-08-01T09:44:29;6.70;;;2.90;;
59416;SDS011;45222;52.458;20.914;2023-08-01T09:48:21;6.60;;;2.60;;
59416;SDS011;45222;52.458;20.914;2023-08-01T09:52:10;5.10;;;2.80;;
59416;SDS011;45222;52.458;20.914;2023-08-01T09:55:55;24.00;;;4.20;;
59416;SDS011;45222;52.458;20.914;2023-08-01T09:59:42;6.80;;;3.00;;
59416;SDS011;45222;52.458;20.914;2023-08-01T10:03:28;6.40;;;3.10;;
59416;SDS011;45222;52.458;20.914;2023-08-01T10:07:13;7.60;;;3.00;;
59416;SDS011;45222;52.458;20.914;2023-08-01T10:11:04;7.60;;;3.00;;
59416;SDS011;45222;52.458;20.914;2023-08-01T10:14:50;7.00;;;3.30;;
59416;SDS011;45222;52.458;20.914;2023-08-01T10:18:36;6.90;;;3.10;;
59416;SDS011;45222;52.458;20.914;2023-08-01T10:22:22;8.60;;;3.30;;
59416;SDS011;45222;52.458;20.914;2023-08-01T10:26:08;6.70;;;3.20;;
59416;SDS011;45222;52.458;20.914;2023-08-01T10:29:58;7.30;;;3.30;;
59416;SDS011;45222;52.458;20.914;2023-08-01T10:33:45;7.30;;;3.10;;
59416;SDS011;45222;52.458;20.914;2023-08-01T10:37:41;8.40;;;3.60;;
59416;SDS011;45222;52.458;20.914;2023-08-01T10:41:28;8.10;;;3.70;;
59416;SDS011;45222;52.458;20.914;2023-08-01T10:45:21;6.60;;;3.40;;
59416;SDS011;45222;52.458;20.914;2023-08-01T10:49:10;7.50;;;3.50;;
59416;SDS011;45222;52.458;20.914;2023-08-01T10:53:02;6.80;;;3.40;;
59416;SDS011;45222;52.458;20.914;2023-08-01T10:56:49;8.10;;;3.40;;
59416;SDS011;45222;52.458;20.914;2023-08-01T11:00:37;9.00;;;3.30;;
59416;SDS011;45222;52.458;20.914;2023-08-01T11:04:23;7.40;;;3.70;;
59416;SDS011;45222;52.458;20.914;2023-08-01T11:08:08;5.70;;;3.20;;
59416;SDS011;45222;52.458;20.914;2023-08-01T11:11:54;8.50;;;3.80;;
59416;SDS011;45222;52.458;20.914;2023-08-01T11:15:40;6.80;;;3.60;;
59416;SDS011;45222;52.458;20.914;2023-08-01T11:19:26;6.90;;;3.50;;
59416;SDS011;45222;52.458;20.914;2023-08-01T11:23:12;8.20;;;3.50;;
59416;SDS011;45222;52.458;20.914;2023-08-01T11:26:58;7.70;;;3.50;;
59416;SDS011;45222;52.458;20.914;2023-08-01T11:30:43;7.10;;;3.40;;
59416;SDS011;45222;52.458;20.914;2023-08-01T11:34:38;5.90;;;3.30;;
59416;SDS011;45222;52.458;20.914;2023-08-01T11:38:25;7.60;;;3.60;;
59416;SDS011;45222;52.458;20.914;2023-08-01T11:42:14;6.50;;;3.10;;
59416;SDS011;45222;52.458;20.914;2023-08-01T11:46:00;6.90;;;3.40;;
59416;SDS011;45222;52.458;20.914;2023-08-01T11:49:46;8.10;;;3.80;;
59416;SDS011;45222;52.458;20.914;2023-08-01T11:53:32;6.40;;;3.50;;
59416;SDS011;45222;52.458;20.914;2023-08-01T11:57:22;7.50;;;3.50;;
59416;SDS011;45222;52.458;20.914;2023-08-01T12:01:08;6.80;;;3.40;;
59416;SDS011;45222;52.458;20.914;2023-08-01T12:04:54;9.50;;;3.50;;
59416;SDS011;45222;52.458;20.914;2023-08-01T12:08:40;6.80;;;3.10;;
59416;SDS011;45222;52.458;20.914;2023-08-01T12:12:27;7.80;;;3.30;;
59416;SDS011;45222;52.458;20.914;2023-08-01T12:16:12;7.00;;;3.60;;
59416;SDS011;45222;52.458;20.914;2023-08-01T12:23:45;7.50;;;3.60;;
59416;SDS011;45222;52.458;20.914;2023-08-01T12:27:30;7.10;;;3.40;;
59416;SDS011;45222;52.458;20.914;2023-08-01T12:31:18;8.00;;;3.50;;
59416;SDS011;45222;52.458;20.914;2023-08-01T12:35:05;6.40;;;3.20;;
59416;SDS011;45222;52.458;20.914;2023-08-01T12:38:51;6.10;;;3.00;;
59416;SDS011;45222;52.458;20.914;2023-08-01T12:42:36;7.20;;;3.60;;
59416;SDS011;45222;52.458;20.914;2023-08-01T12:46:21;7.40;;;3.50;;
59416;SDS011;45222;52.458;20.914;2023-08-01T12:50:07;6.90;;;3.20;;
59416;SDS011;45222;52.458;20.914;2023-08-01T12:53:53;5.90;;;3.10;;
59416;SDS011;45222;52.458;20.914;2023-08-01T12:57:39;8.20;;;3.50;;
59416;SDS011;45222;52.458;20.914;2023-08-01T13:01:24;8.80;;;3.70;;
59416;SDS011;45222;52.458;20.914;2023-08-01T13:05:10;7.10;;;3.60;;
59416;SDS011;45222;52.458;20.914;2023-08-01T13:08:55;7.30;;;3.90;;
59416;SDS011;45222;52.458;20.914;2023-08-01T13:12:40;8.40;;;3.70;;
59416;SDS011;45222;52.458;20.914;2023-08-01T13:16:25;6.30;;;3.30;;
59416;SDS011;45222;52.458;20.914;2023-08-01T13:20:11;7.00;;;3.20;;
59416;SDS011;45222;52.458;20.914;2023-08-01T13:23:56;10.00;;;3.70;;
59416;SDS011;45222;52.458;20.914;2023-08-01T13:27:41;5.70;;;3.40;;
59416;SDS011;45222;52.458;20.914;2023-08-01T13:31:26;8.80;;;3.40;;
59416;SDS011;45222;52.458;20.914;2023-08-01T13:35:12;7.50;;;3.50;;
59416;SDS011;45222;52.458;20.914;2023-08-01T13:38:58;7.80;;;3.80;;
59416;SDS011;45222;52.458;20.914;2023-08-01T13:42:43;7.00;;;3.80;;
59416;SDS011;45222;52.458;20.914;2023-08-01T13:46:29;7.10;;;3.40;;
59416;SDS011;45222;52.458;20.914;2023-08-01T13:50:15;6.50;;;3.20;;
59416;SDS011;45222;52.458;20.914;2023-08-01T13:54:00;6.70;;;3.40;;
59416;SDS011;45222;52.458;20.914;2023-08-01T13:57:45;7.00;;;3.50;;
59416;SDS011;45222;52.458;20.914;2023-08-01T14:01:30;8.70;;;3.80;;
59416;SDS011;45222;52.458;20.914;2023-08-01T14:05:16;8.00;;;3.60;;
59416;SDS011;45222;52.458;20.914;2023-08-01T14:09:01;7.00;;;3.50;;
59416;SDS011;45222;52.458;20.914;2023-08-01T14:12:47;7.60;;;3.50;;
59416;SDS011;45222;52.458;20.914;2023-08-01T14:16:32;6.40;;;3.60;;
59416;SDS011;45222;52.458;20.914;2023-08-01T14:20:18;7.40;;;3.30;;
59416;SDS011;45222;52.458;20.914;2023-08-01T14:24:03;7.60;;;3.80;;
59416;SDS011;45222;52.458;20.914;2023-08-01T14:27:48;9.30;;;3.90;;
59416;SDS011;45222;52.458;20.914;2023-08-01T14:31:34;9.00;;;4.50;;
59416;SDS011;45222;52.458;20.914;2023-08-01T14:35:19;13.00;;;4.10;;
59416;SDS011;45222;52.458;20.914;2023-08-01T14:39:04;8.00;;;3.80;;
59416;SDS011;45222;52.458;20.914;2023-08-01T14:42:50;6.80;;;3.90;;
59416;SDS011;45222;52.458;20.914;2023-08-01T14:46:36;7.90;;;4.20;;
59416;SDS011;45222;52.458;20.914;2023-08-01T14:50:21;9.10;;;4.40;;
59416;SDS011;45222;52.458;20.914;2023-08-01T14:54:07;8.90;;;4.10;;
59416;SDS011;45222;52.458;20.914;2023-08-01T14:57:53;6.70;;;3.70;;
59416;SDS011;45222;52.458;20.914;2023-08-01T15:01:38;7.20;;;3.90;;
59416;SDS011;45222;52.458;20.914;2023-08-01T15:05:24;7.00;;;4.00;;
59416;SDS011;45222;52.458;20.914;2023-08-01T15:09:10;8.40;;;3.90;;
59416;SDS011;45222;52.458;20.914;2023-08-01T15:12:55;8.10;;;4.50;;
59416;SDS011;45222;52.458;20.914;2023-08-01T15:16:40;7.10;;;4.00;;
59416;SDS011;45222;52.458;20.914;2023-08-01T15:20:26;7.00;;;4.10;;
59416;SDS011;45222;52.458;20.914;2023-08-01T15:24:11;8.00;;;4.20;;
59416;SDS011;45222;52.458;20.914;2023-08-01T15:27:56;8.50;;;3.90;;
59416;SDS011;45222;52.458;20.914;2023-08-01T15:31:41;7.10;;;4.10;;
59416;SDS011;45222;52.458;20.914;2023-08-01T15:35:28;6.90;;;3.90;;
59416;SDS011;45222;52.458;20.914;2023-08-01T15:39:13;7.80;;;4.00;;
59416;SDS011;45222;52.458;20.914;2023-08-01T15:42:58;6.50;;;3.70;;
59416;SDS011;45222;52.458;20.914;2023-08-01T15:46:43;8.20;;;4.10;;
59416;SDS011;45222;52.458;20.914;2023-08-01T15:50:29;8.50;;;4.00;;
59416;SDS011;45222;52.458;20.914;2023-08-01T15:54:14;9.00;;;4.00;;
59416;SDS011;45222;52.458;20.914;2023-08-01T15:58:03;8.00;;;4.20;;
59416;SDS011;45222;52.458;20.914;2023-08-01T16:01:48;7.00;;;4.10;;
59416;SDS011;45222;52.458;20.914;2023-08-01T16:05:33;10.70;;;6.50;;
59416;SDS011;45222;52.458;20.914;2023-08-01T16:09:19;7.70;;;3.90;;
59416;SDS011;45222;52.458;20.914;2023-08-01T16:13:04;6.90;;;3.90;;
59416;SDS011;45222;52.458;20.914;2023-08-01T16:16:49;7.30;;;4.00;;
59416;SDS011;45222;52.458;20.914;2023-08-01T16:20:35;7.40;;;4.00;;
59416;SDS011;45222;52.458;20.914;2023-08-01T16:24:20;6.70;;;3.90;;
59416;SDS011;45222;52.458;20.914;2023-08-01T16:28:06;7.80;;;3.80;;
59416;SDS011;45222;52.458;20.914;2023-08-01T16:31:51;7.60;;;4.20;;
59416;SDS011;45222;52.458;20.914;2023-08-01T16:35:36;7.10;;;3.70;;
59416;SDS011;45222;52.458;20.914;2023-08-01T16:39:21;9.30;;;4.30;;
59416;SDS011;45222;52.458;20.914;2023-08-01T16:43:07;7.00;;;3.60;;
59416;SDS011;45222;52.458;20.914;2023-08-01T16:46:53;8.20;;;4.20;;
59416;SDS011;45222;52.458;20.914;2023-08-01T16:50:38;7.50;;;4.10;;
59416;SDS011;45222;52.458;20.914;2023-08-01T16:54:23;8.20;;;4.10;;
59416;SDS011;45222;52.458;20.914;2023-08-01T16:58:08;6.30;;;3.80;;
59416;SDS011;45222;52.458;20.914;2023-08-01T17:01:55;7.00;;;3.70;;
59416;SDS011;45222;52.458;20.914;2023-08-01T17:05:41;7.30;;;4.00;;
59416;SDS011;45222;52.458;20.914;2023-08-01T17:09:26;6.70;;;3.90;;
59416;SDS011;45222;52.458;20.914;2023-08-01T17:13:11;7.30;;;3.80;;
59416;SDS011;45222;52.458;20.914;2023-08-01T17:16:56;7.80;;;4.10;;
59416;SDS011;45222;52.458;20.914;2023-08-01T17:20:42;8.70;;;3.90;;
59416;SDS011;45222;52.458;20.914;2023-08-01T17:24:28;6.30;;;3.70;;
59416;SDS011;45222;52.458;20.914;2023-08-01T17:28:14;8.70;;;4.00;;
59416;SDS011;45222;52.458;20.914;2023-08-01T17:31:59;7.00;;;3.50;;
59416;SDS011;45222;52.458;20.914;2023-08-01T17:35:46;8.10;;;4.00;;
59416;SDS011;45222;52.458;20.914;2023-08-01T17:39:31;6.90;;;3.90;;
59416;SDS011;45222;52.458;20.914;2023-08-01T17:43:17;6.00;;;3.70;;
59416;SDS011;45222;52.458;20.914;2023-08-01T17:47:03;8.20;;;3.80;;
59416;SDS011;45222;52.458;20.914;2023-08-01T17:50:48;7.90;;;3.50;;
59416;SDS011;45222;52.458;20.914;2023-08-01T17:54:34;6.40;;;3.40;;
59416;SDS011;45222;52.458;20.914;2023-08-01T17:58:19;9.10;;;4.00;;
59416;SDS011;45222;52.458;20.914;2023-08-01T18:02:05;6.40;;;3.80;;
59416;SDS011;45222;52.458;20.914;2023-08-01T18:05:52;9.70;;;3.60;;
59416;SDS011;45222;52.458;20.914;2023-08-01T18:09:47;6.90;;;3.70;;
59416;SDS011;45222;52.458;20.914;2023-08-01T18:13:32;8.10;;;3.60;;
59416;SDS011;45222;52.458;20.914;2023-08-01T18:17:17;6.30;;;3.40;;
59416;SDS011;45222;52.458;20.914;2023-08-01T18:21:04;6.80;;;3.40;;
59416;SDS011;45222;52.458;20.914;2023-08-01T18:24:51;5.90;;;3.30;;
59416;SDS011;45222;52.458;20.914;2023-08-01T18:28:36;6.30;;;3.50;;
59416;SDS011;45222;52.458;20.914;2023-08-01T18:32:21;5.90;;;3.30;;
59416;SDS011;45222;52.458;20.914;2023-08-01T18:36:10;6.20;;;3.50;;
59416;SDS011;45222;52.458;20.914;2023-08-01T18:39:56;7.10;;;3.60;;
59416;SDS011;45222;52.458;20.914;2023-08-01T18:43:41;6.50;;;3.70;;
59416;SDS011;45222;52.458;20.914;2023-08-01T18:47:27;7.00;;;4.00;;
59416;SDS011;45222;52.458;20.914;2023-08-01T18:51:13;6.50;;;4.00;;
59416;SDS011;45222;52.458;20.914;2023-08-01T18:54:59;8.00;;;3.50;;
59416;SDS011;45222;52.458;20.914;2023-08-01T18:58:45;6.90;;;2.80;;
59416;SDS011;45222;52.458;20.914;2023-08-01T19:02:30;6.40;;;3.00;;
59416;SDS011;45222;52.458;20.914;2023-08-01T19:06:16;6.50;;;2.90;;
59416;SDS011;45222;52.458;20.914;2023-08-01T19:10:02;5.70;;;2.50;;
59416;SDS011;45222;52.458;20.914;2023-08-01T19:13:49;5.80;;;3.00;;
59416;SDS011;45222;52.458;20.914;2023-08-01T19:17:37;6.70;;;2.90;;
59416;SDS011;45222;52.458;20.914;2023-08-01T19:21:22;6.80;;;3.10;;
59416;SDS011;45222;52.458;20.914;2023-08-01T19:25:07;5.80;;;2.90;;
59416;SDS011;45222;52.458;20.914;2023-08-01T19:28:53;6.70;;;3.30;;
59416;SDS011;45222;52.458;20.914;2023-08-01T19:32:38;5.70;;;3.10;;
59416;SDS011;45222;52.458;20.914;2023-08-01T19:36:24;7.10;;;3.40;;
59416;SDS011;45222;52.458;20.914;2023-08-01T19:40:10;6.30;;;2.90;;
59416;SDS011;45222;52.458;20.914;2023-08-01T19:43:56;8.80;;;3.10;;
59416;SDS011;45222;52.458;20.914;2023-08-01T19:47:41;7.00;;;3.40;;
59416;SDS011;45222;52.458;20.914;2023-08-01T19:51:26;6.60;;;3.10;;
59416;SDS011;45222;52.458;20.914;2023-08-01T19:55:12;7.70;;;3.50;;
59416;SDS011;45222;52.458;20.914;2023-08-01T19:58:57;7.60;;;3.70;;
59416;SDS011;45222;52.458;20.914;2023-08-01T20:02:43;7.00;;;3.70;;
59416;SDS011;45222;52.458;20.914;2023-08-01T20:06:30;7.60;;;3.60;;
59416;SDS011;45222;52.458;20.914;2023-08-01T20:10:16;7.30;;;3.70;;
59416;SDS011;45222;52.458;20.914;2023-08-01T20:14:01;5.60;;;3.40;;
59416;SDS011;45222;52.458;20.914;2023-08-01T20:17:46;6.80;;;3.90;;
59416;SDS011;45222;52.458;20.914;2023-08-01T20:21:31;7.10;;;4.30;;
59416;SDS011;45222;52.458;20.914;2023-08-01T20:25:17;6.50;;;3.90;;
59416;SDS011;45222;52.458;20.914;2023-08-01T20:29:02;9.20;;;4.20;;
59416;SDS011;45222;52.458;20.914;2023-08-01T20:32:48;8.40;;;4.30;;
59416;SDS011;45222;52.458;20.914;2023-08-01T20:36:33;8.30;;;4.20;;
59416;SDS011;45222;52.458;20.914;2023-08-01T20:40:19;9.60;;;4.10;;
59416;SDS011;45222;52.458;20.914;2023-08-01T20:44:04;8.40;;;3.90;;
59416;SDS011;45222;52.458;20.914;2023-08-01T20:47:50;6.60;;;3.80;;
59416;SDS011;45222;52.458;20.914;2023-08-01T20:51:35;6.00;;;3.50;;
59416;SDS011;45222;52.458;20.914;2023-08-01T20:55:20;7.60;;;3.70;;
59416;SDS011;45222;52.458;20.914;2023-08-01T20:59:05;8.90;;;3.30;;
59416;SDS011;45222;52.458;20.914;2023-08-01T21:02:51;6.60;;;3.10;;
59416;SDS011;45222;52.458;20.914;2023-08-01T21:06:36;6.80;;;3.30;;
59416;SDS011;45222;52.458;20.914;2023-08-01T21:10:21;6.00;;;3.10;;
59416;SDS011;45222;52.458;20.914;2023-08-01T21:14:06;4.90;;;2.60;;
59416;SDS011;45222;52.458;20.914;2023-08-01T21:17:51;6.90;;;3.00;;
59416;SDS011;45222;52.458;20.914;2023-08-01T21:21:37;6.60;;;2.80;;
59416;SDS011;45222;52.458;20.914;2023-08-01T21:25:23;5.00;;;2.80;;
59416;SDS011;45222;52.458;20.914;2023-08-01T21:29:08;4.40;;;2.50;;
59416;SDS011;45222;52.458;20.914;2023-08-01T21:32:53;5.50;;;2.80;;
59416;SDS011;45222;52.458;20.914;2023-08-01T21:36:38;5.90;;;2.70;;
59416;SDS011;45222;52.458;20.914;2023-08-01T21:40:23;5.20;;;2.50;;
59416;SDS011;45222;52.458;20.914;2023-08-01T21:44:09;7.20;;;2.80;;
59416;SDS011;45222;52.458;20.914;2023-08-01T21:47:54;6.20;;;2.30;;
59416;SDS011;45222;52.458;20.914;2023-08-01T21:51:39;7.50;;;2.80;;
59416;SDS011;45222;52.458;20.914;2023-08-01T21:55:24;5.70;;;2.10;;
59416;SDS011;45222;52.458;20.914;2023-08-01T21:59:10;4.30;;;2.20;;
59416;SDS011;45222;52.458;20.914;2023-08-01T22:02:55;10.70;;;2.50;;
59416;SDS011;45222;52.458;20.914;2023-08-01T22:06:40;5.10;;;2.40;;
59416;SDS011;45222;52.458;20.914;2023-08-01T22:10:25;4.30;;;2.30;;
59416;SDS011;45222;52.458;20.914;2023-08-01T22:14:10;7.60;;;2.70;;
59416;SDS011;45222;52.458;20.914;2023-08-01T22:17:55;6.30;;;3.20;;
59416;SDS011;45222;52.458;20.914;2023-08-01T22:21:41;7.40;;;2.90;;